aviador You're here:

LFSD Decoded Metar

DIJON in FRANCE
Report Time2017-11-20 22:30:00
UTC Time2017-11-20 23:03:32
Flight Rules ifr IFR
WindVRB at 01 kt
Visibility6000 m
Phenomena:N/A
Clouds:Broken 006 Hf
Ceiling600 ft
Temp03°C (ISA -11)
Dew Point03°C (100% RH)
AAT1.1°C
QNH1022 hPa
Density Alt-728 ft
Elevation745 ft
Report Wrong Elevation
Raw Report
METAR LFSD 202230Z AUTO VRB01KT 6000 BKN006 03/03 Q1022=

Extra information for LFSD:More info

Metar Taf Metar & Taf Last 4 Metars F.Rules Stats Wind Profile Meteogram Temp Stats Airport Information Weather charts Add Link Nearby VenuesMetar ALERT Operation Metar Decoded Social comments